ハノイ の空港の天気 - METARとTAF

ノイバイ国際空港(ハノイ) ( VVNB / HAN ) - ベトナム ハノイ
飛行場実況気象(Metar)
観測時間10/18 15:00 ICT (10/18 08:00 UTC)
風向・風速北北西 3m/s
視程10km以上
天気現象
少しの雲 雲底高度 790m
気温27℃
湿度58%
気圧1017hPa
METARVVNB 180800Z 34005KT 300V030 9999 FEW026 27/18 Q1017 NOSIG
過去の天気等 Google飛行場航空写真 Wunderground天気予報

過去48時間のMETAR

飛行場予報(TAF)
発表時間: 10/18 12:00 ICT (10/18 05:00 UTC)
予報対象時間: 18日13時 ICT ~ 19日13時 ICT
風向・風速北 4m/s
視程9000m
少しの雲 雲底高度 760m
TAF VVNB 180500Z 1806/1906 36008KT 9000 FEW025